createdAt,value
2023-02-17T00:00:02.522Z,1021.9
2023-02-17T00:01:02.546Z,1022
2023-02-17T00:02:02.668Z,1022
2023-02-17T00:03:02.510Z,1021.9
2023-02-17T00:04:02.627Z,1021.9
2023-02-17T00:05:02.549Z,1022
2023-02-17T00:06:02.349Z,1021.9
2023-02-17T00:07:02.292Z,1022
2023-02-17T00:08:02.306Z,1022
2023-02-17T00:09:02.367Z,1022
2023-02-17T00:10:02.355Z,1021.9
2023-02-17T00:11:02.094Z,1021.9
2023-02-17T00:12:02.003Z,1021.9
2023-02-17T00:13:01.849Z,1021.9
2023-02-17T00:14:01.866Z,1021.9
2023-02-17T00:15:01.750Z,1021.9
2023-02-17T00:16:02.976Z,1021.9
2023-02-17T00:17:02.410Z,1021.9
2023-02-17T00:18:02.461Z,1021.9
2023-02-17T00:19:02.582Z,1022
2023-02-17T00:20:02.431Z,1021.9
2023-02-17T00:21:02.461Z,1021.9
2023-02-17T00:22:02.788Z,1021.9
2023-02-17T00:23:02.543Z,1021.9
2023-02-17T00:24:02.619Z,1021.9
2023-02-17T00:25:02.413Z,1021.9
2023-02-17T00:26:02.457Z,1022
2023-02-17T00:27:02.427Z,1021.9
2023-02-17T00:28:02.214Z,1021.9
2023-02-17T00:29:02.232Z,1021.9
2023-02-17T00:30:02.393Z,1021.9
2023-02-17T00:31:02.515Z,1021.8
2023-02-17T00:32:02.939Z,1021.8
2023-02-17T00:33:02.822Z,1021.8
2023-02-17T00:34:02.675Z,1021.8
2023-02-17T00:35:02.650Z,1021.8
2023-02-17T00:36:02.539Z,1021.8
2023-02-17T00:37:02.578Z,1021.8
2023-02-17T00:38:02.536Z,1021.8
2023-02-17T00:39:02.399Z,1021.8
2023-02-17T00:40:02.400Z,1021.8
2023-02-17T00:41:02.378Z,1021.8
2023-02-17T00:42:02.152Z,1021.8
2023-02-17T00:43:02.146Z,1021.8
2023-02-17T00:44:01.991Z,1021.8
2023-02-17T00:45:02.000Z,1021.8
2023-02-17T00:46:01.825Z,1021.8
2023-02-17T00:47:02.320Z,1021.8
2023-02-17T00:48:02.400Z,1021.8
2023-02-17T00:49:02.153Z,1021.9
2023-02-17T00:50:02.199Z,1021.9
2023-02-17T00:51:01.955Z,1021.8
2023-02-17T00:52:01.936Z,1021.8
2023-02-17T00:53:01.798Z,1021.8
2023-02-17T00:54:02.830Z,1021.8
2023-02-17T00:55:02.675Z,1021.8
2023-02-17T00:56:02.675Z,1021.7
2023-02-17T00:57:02.556Z,1021.7
2023-02-17T00:58:02.540Z,1021.7
2023-02-17T00:59:02.545Z,1021.6
2023-02-17T01:00:02.430Z,1021.6
2023-02-17T01:01:02.468Z,1021.7
2023-02-17T01:02:02.851Z,1021.6
2023-02-17T01:03:02.640Z,1021.6
2023-02-17T01:04:02.683Z,1021.5
2023-02-17T01:05:02.832Z,1021.5
2023-02-17T01:06:03.198Z,1021.5
2023-02-17T01:07:02.041Z,1021.5
2023-02-17T01:08:02.049Z,1021.5
2023-02-17T01:09:01.867Z,1021.5
2023-02-17T01:10:01.904Z,1021.5
2023-02-17T01:11:01.737Z,1021.6
2023-02-17T01:12:02.751Z,1021.5
2023-02-17T01:13:02.602Z,1021.5
2023-02-17T01:14:02.616Z,1021.6
2023-02-17T01:15:02.455Z,1021.6
2023-02-17T01:16:02.598Z,1021.6
2023-02-17T01:17:02.463Z,1021.6
2023-02-17T01:18:02.270Z,1021.6
2023-02-17T01:19:02.218Z,1021.5
2023-02-17T01:20:02.021Z,1021.6
2023-02-17T01:21:02.033Z,1021.6
2023-02-17T01:22:01.854Z,1021.6
2023-02-17T01:23:01.902Z,1021.6
2023-02-17T01:24:01.739Z,1021.6
2023-02-17T01:25:03.196Z,1021.6
2023-02-17T01:26:01.985Z,1021.6
2023-02-17T01:27:01.946Z,1021.5
2023-02-17T01:28:01.753Z,1021.5
2023-02-17T01:29:01.871Z,1021.5
2023-02-17T01:30:03.057Z,1021.4
2023-02-17T01:31:02.050Z,1021.5
2023-02-17T01:32:02.236Z,1021.4
2023-02-17T01:33:02.117Z,1021.5
2023-02-17T01:34:01.983Z,1021.5
2023-02-17T01:35:02.029Z,1021.5
2023-02-17T01:36:01.817Z,1021.5
2023-02-17T01:37:02.829Z,1021.5
2023-02-17T01:38:02.673Z,1021.5
2023-02-17T01:39:02.718Z,1021.5
2023-02-17T01:40:02.521Z,1021.4
2023-02-17T01:41:02.545Z,1021.5
2023-02-17T01:42:02.541Z,1021.4
2023-02-17T01:43:02.346Z,1021.5
2023-02-17T01:44:02.394Z,1021.5
2023-02-17T01:45:02.340Z,1021.5
2023-02-17T01:46:02.174Z,1021.5
2023-02-17T01:47:01.987Z,1021.5
2023-02-17T01:48:01.965Z,1021.5
2023-02-17T01:49:01.784Z,1021.5
2023-02-17T01:50:01.867Z,1021.5
2023-02-17T01:51:02.732Z,1021.5
2023-02-17T01:52:02.607Z,1021.5
2023-02-17T01:53:02.992Z,1021.5
2023-02-17T01:54:01.732Z,1021.4
2023-02-17T01:55:02.808Z,1021.5
2023-02-17T01:56:02.643Z,1021.5
2023-02-17T01:57:02.704Z,1021.5
2023-02-17T01:58:02.638Z,1021.4
2023-02-17T01:59:02.513Z,1021.4
2023-02-17T02:00:02.498Z,1021.4
2023-02-17T02:01:02.290Z,1021.4
2023-02-17T02:02:02.832Z,1021.4
2023-02-17T02:03:02.948Z,1021.4
2023-02-17T02:04:01.777Z,1021.4
2023-02-17T02:05:02.796Z,1021.4
2023-02-17T02:06:03.157Z,1021.5
2023-02-17T02:07:02.207Z,1021.4
2023-02-17T02:08:01.952Z,1021.5
2023-02-17T02:09:01.917Z,1021.5
2023-02-17T02:10:01.822Z,1021.4
2023-02-17T02:11:02.766Z,1021.4
2023-02-17T02:12:02.632Z,1021.4
2023-02-17T02:13:02.690Z,1021.4
2023-02-17T02:14:02.546Z,1021.4
2023-02-17T02:15:02.647Z,1021.4
2023-02-17T02:16:02.631Z,1021.4
2023-02-17T02:17:02.414Z,1021.4
2023-02-17T02:18:02.354Z,1021.4
2023-02-17T02:19:02.249Z,1021.3
2023-02-17T02:20:02.125Z,1021.4
2023-02-17T02:21:02.073Z,1021.3
2023-02-17T02:22:01.927Z,1021.3
2023-02-17T02:23:01.909Z,1021.3
2023-02-17T02:24:01.742Z,1021.3
2023-02-17T02:25:02.805Z,1021.2
2023-02-17T02:26:02.676Z,1021.2
2023-02-17T02:27:02.610Z,1021.3
2023-02-17T02:28:02.509Z,1021.3
2023-02-17T02:29:02.493Z,1021.2
2023-02-17T02:30:02.743Z,1021.2
2023-02-17T02:31:02.689Z,1021.2
2023-02-17T02:32:02.864Z,1021.2
2023-02-17T02:33:02.701Z,1021.2
2023-02-17T02:34:02.643Z,1021.3
2023-02-17T02:35:02.589Z,1021.2
2023-02-17T02:36:02.470Z,1021.2
2023-02-17T02:37:02.521Z,1021.2
2023-02-17T02:38:02.384Z,1021.2
2023-02-17T02:39:02.244Z,1021.2
2023-02-17T02:40:02.220Z,1021.1
2023-02-17T02:41:02.031Z,1021.2
2023-02-17T02:42:02.010Z,1021.1
2023-02-17T02:43:01.953Z,1021.1
2023-02-17T02:44:01.810Z,1021.2
2023-02-17T02:45:01.796Z,1021.1
2023-02-17T02:46:02.156Z,1021.1
2023-02-17T02:47:01.854Z,1021.1
2023-02-17T02:48:01.822Z,1021.1
2023-02-17T02:49:01.803Z,1021.1
2023-02-17T02:50:02.726Z,1021.1
2023-02-17T02:51:02.607Z,1021
2023-02-17T02:52:02.669Z,1021.1
2023-02-17T02:53:02.512Z,1021.1
2023-02-17T02:54:02.628Z,1021.1
2023-02-17T02:55:02.716Z,1021.1
2023-02-17T02:56:02.555Z,1021.1
2023-02-17T02:57:02.581Z,1021
2023-02-17T02:58:02.444Z,1021.1
2023-02-17T02:59:02.390Z,1021
2023-02-17T03:00:02.395Z,1020.9
2023-02-17T03:01:02.420Z,1021
2023-02-17T03:02:02.463Z,1021
2023-02-17T03:03:02.508Z,1020.9
2023-02-17T03:04:02.636Z,1021
2023-02-17T03:05:02.448Z,1021
2023-02-17T03:06:02.422Z,1021
2023-02-17T03:07:02.148Z,1021
2023-02-17T03:08:02.180Z,1021
2023-02-17T03:09:02.023Z,1021
2023-02-17T03:10:02.057Z,1021
2023-02-17T03:11:01.904Z,1021
2023-02-17T03:12:01.829Z,1021
2023-02-17T03:13:01.752Z,1021
2023-02-17T03:14:02.790Z,1021
2023-02-17T03:15:02.661Z,1021
2023-02-17T03:16:02.688Z,1021
2023-02-17T03:17:02.553Z,1020.9
2023-02-17T03:18:02.626Z,1020.9
2023-02-17T03:19:02.484Z,1020.9
2023-02-17T03:20:02.535Z,1020.9
2023-02-17T03:21:02.546Z,1020.9
2023-02-17T03:22:02.338Z,1020.8
2023-02-17T03:23:02.333Z,1020.8
2023-02-17T03:24:02.266Z,1020.8
2023-02-17T03:25:02.104Z,1020.8
2023-02-17T03:26:02.129Z,1020.8
2023-02-17T03:27:01.984Z,1020.8
2023-02-17T03:28:01.936Z,1020.7
2023-02-17T03:29:01.805Z,1020.9
2023-02-17T03:30:02.034Z,1020.8
2023-02-17T03:31:01.943Z,1020.9
2023-02-17T03:32:02.165Z,1020.8
2023-02-17T03:33:02.010Z,1020.9
2023-02-17T03:34:01.925Z,1020.9
2023-02-17T03:35:02.002Z,1020.9
2023-02-17T03:36:01.786Z,1020.8
2023-02-17T03:37:01.902Z,1020.8
2023-02-17T03:38:01.785Z,1020.8
2023-02-17T03:39:01.855Z,1020.8
2023-02-17T03:40:02.782Z,1020.8
2023-02-17T03:41:02.624Z,1020.8
2023-02-17T03:42:02.716Z,1020.8
2023-02-17T03:43:02.477Z,1020.8
2023-02-17T03:44:02.483Z,1020.8
2023-02-17T03:45:02.393Z,1020.9
2023-02-17T03:46:02.669Z,1020.9
2023-02-17T03:47:02.420Z,1020.9
2023-02-17T03:48:02.400Z,1020.9
2023-02-17T03:49:02.359Z,1020.8
2023-02-17T03:50:02.268Z,1020.7
2023-02-17T03:51:02.338Z,1020.7
2023-02-17T03:52:02.444Z,1020.7
2023-02-17T03:53:02.181Z,1020.7
2023-02-17T03:54:02.269Z,1020.8
2023-02-17T03:55:02.058Z,1020.7
2023-02-17T03:56:02.070Z,1020.7
2023-02-17T03:57:01.963Z,1020.8
2023-02-17T03:58:01.909Z,1020.7
2023-02-17T03:59:01.753Z,1020.7
2023-02-17T04:00:02.821Z,1020.7
2023-02-17T04:01:02.960Z,1020.7
2023-02-17T04:02:01.972Z,1020.7
2023-02-17T04:03:02.000Z,1020.6
2023-02-17T04:04:02.015Z,1020.7
2023-02-17T04:05:01.909Z,1020.7
2023-02-17T04:06:01.772Z,1020.6
2023-02-17T04:07:02.809Z,1020.6
2023-02-17T04:08:02.690Z,1020.7
2023-02-17T04:09:02.631Z,1020.6
2023-02-17T04:10:09.480Z,1020.7
2023-02-17T04:11:02.397Z,1020.7
2023-02-17T04:12:02.365Z,1020.7
2023-02-17T04:13:02.319Z,1020.7
2023-02-17T04:14:02.193Z,1020.7
2023-02-17T04:15:02.226Z,1020.7
2023-02-17T04:16:02.444Z,1020.7
2023-02-17T04:17:02.398Z,1020.6
2023-02-17T04:18:02.325Z,1020.7
2023-02-17T04:19:02.257Z,1020.6
2023-02-17T04:20:02.147Z,1020.6
2023-02-17T04:21:02.246Z,1020.6
2023-02-17T04:22:02.099Z,1020.7
2023-02-17T04:23:02.180Z,1020.6
2023-02-17T04:24:02.036Z,1020.7
2023-02-17T04:25:02.081Z,1020.6
2023-02-17T04:26:01.882Z,1020.6
2023-02-17T04:27:01.899Z,1020.6
2023-02-17T04:28:01.743Z,1020.7
2023-02-17T04:29:02.800Z,1020.7
2023-02-17T04:30:02.912Z,1020.6
2023-02-17T04:31:03.045Z,1020.6
2023-02-17T04:32:02.437Z,1020.6
2023-02-17T04:33:02.380Z,1020.6
2023-02-17T04:34:02.332Z,1020.6
2023-02-17T04:35:02.168Z,1020.6
2023-02-17T04:36:02.218Z,1020.5
2023-02-17T04:37:02.044Z,1020.6
2023-02-17T04:38:02.075Z,1020.5
2023-02-17T04:39:01.884Z,1020.5
2023-02-17T04:40:01.904Z,1020.6
2023-02-17T04:41:01.825Z,1020.5
2023-02-17T04:42:01.851Z,1020.5
2023-02-17T04:43:02.817Z,1020.5
2023-02-17T04:44:02.638Z,1020.5
2023-02-17T04:45:02.619Z,1020.5
2023-02-17T04:46:02.703Z,1020.5
2023-02-17T04:47:01.819Z,1020.5
2023-02-17T04:48:01.844Z,1020.5
2023-02-17T04:49:02.746Z,1020.5
2023-02-17T04:50:02.652Z,1020.5
2023-02-17T04:51:02.664Z,1020.4
2023-02-17T04:52:02.510Z,1020.4
2023-02-17T04:53:02.560Z,1020.4
2023-02-17T04:54:02.472Z,1020.4
2023-02-17T04:55:02.308Z,1020.4
2023-02-17T04:56:02.272Z,1020.4
2023-02-17T04:57:02.016Z,1020.5
2023-02-17T04:58:01.998Z,1020.4
2023-02-17T04:59:01.813Z,1020.3
2023-02-17T05:00:01.864Z,1020.4
2023-02-17T05:01:02.765Z,1020.4
2023-02-17T05:02:01.728Z,1020.3
2023-02-17T05:03:02.784Z,1020.3
2023-02-17T05:04:02.683Z,1020.3
2023-02-17T05:05:02.879Z,1020.2
2023-02-17T05:06:02.760Z,1020.2
2023-02-17T05:07:02.724Z,1020.2
2023-02-17T05:08:02.565Z,1020.2
2023-02-17T05:09:02.709Z,1020.1
2023-02-17T05:10:02.514Z,1020.2
2023-02-17T05:11:02.462Z,1020.2
2023-02-17T05:12:02.442Z,1020.1
2023-02-17T05:13:02.226Z,1020.2
2023-02-17T05:14:02.300Z,1020.1
2023-02-17T05:15:02.156Z,1020.1
2023-02-17T05:16:02.421Z,1020.1
2023-02-17T05:17:02.073Z,1020.2
2023-02-17T05:18:02.134Z,1020.1
2023-02-17T05:19:01.932Z,1020.1
2023-02-17T05:20:01.933Z,1020.1
2023-02-17T05:21:01.736Z,1020.1
2023-02-17T05:22:02.799Z,1020.1
2023-02-17T05:23:02.621Z,1020.1
2023-02-17T05:24:02.687Z,1020.1
2023-02-17T05:25:02.533Z,1020
2023-02-17T05:26:02.568Z,1020.1
2023-02-17T05:27:02.546Z,1020
2023-02-17T05:28:02.403Z,1020.1
2023-02-17T05:29:02.427Z,1020.1
2023-02-17T05:30:02.712Z,1020.1
2023-02-17T05:31:02.578Z,1020.1
2023-02-17T05:32:02.543Z,1020.1
2023-02-17T05:33:02.399Z,1020.2
2023-02-17T05:34:02.410Z,1020.2
2023-02-17T05:35:02.259Z,1020.2
2023-02-17T05:36:02.266Z,1020.2
2023-02-17T05:37:02.093Z,1020.2
2023-02-17T05:38:02.104Z,1020.2
2023-02-17T05:39:01.960Z,1020.1
2023-02-17T05:40:01.953Z,1020.2
2023-02-17T05:41:01.765Z,1020.2
2023-02-17T05:42:01.866Z,1020.2
2023-02-17T05:43:02.774Z,1020.2
2023-02-17T05:44:02.690Z,1020.2
2023-02-17T05:45:02.715Z,1020.2
2023-02-17T05:46:02.769Z,1020.2
2023-02-17T05:47:02.604Z,1020.2
2023-02-17T05:48:02.674Z,1020.2
2023-02-17T05:49:02.524Z,1020.2
2023-02-17T05:50:02.529Z,1020.2
2023-02-17T05:51:02.451Z,1020.2
2023-02-17T05:52:02.296Z,1020.2
2023-02-17T05:53:02.300Z,1020.1
2023-02-17T05:54:02.272Z,1020.1
2023-02-17T05:55:02.226Z,1020
2023-02-17T05:56:02.178Z,1020.1
2023-02-17T05:57:02.065Z,1020
2023-02-17T05:58:02.507Z,1020.1
2023-02-17T05:59:02.266Z,1020.1
2023-02-17T06:00:02.129Z,1020.1
2023-02-17T06:01:02.051Z,1020
2023-02-17T06:02:02.026Z,1020
2023-02-17T06:03:02.161Z,1020.1
2023-02-17T06:04:01.966Z,1020
2023-02-17T06:05:02.367Z,1020
2023-02-17T06:06:02.194Z,1020
2023-02-17T06:07:02.168Z,1020
2023-02-17T06:08:02.116Z,1020
2023-02-17T06:09:02.003Z,1020
2023-02-17T06:10:02.009Z,1020
2023-02-17T06:11:01.974Z,1020
2023-02-17T06:12:01.859Z,1020
2023-02-17T06:13:01.789Z,1020
2023-02-17T06:14:01.811Z,1020
2023-02-17T06:15:01.750Z,1019.9
2023-02-17T06:16:02.794Z,1019.9
2023-02-17T06:17:02.501Z,1019.9
2023-02-17T06:18:02.438Z,1019.9
2023-02-17T06:19:02.419Z,1019.9
2023-02-17T06:20:02.354Z,1019.9
2023-02-17T06:21:02.282Z,1019.9
2023-02-17T06:22:02.281Z,1019.9
2023-02-17T06:23:02.187Z,1019.8
2023-02-17T06:24:02.222Z,1019.9
2023-02-17T06:25:02.103Z,1019.9
2023-02-17T06:26:02.114Z,1020
2023-02-17T06:27:01.950Z,1019.9
2023-02-17T06:28:01.863Z,1020
2023-02-17T06:29:01.818Z,1020
2023-02-17T06:30:02.001Z,1019.9
2023-02-17T06:31:02.119Z,1019.9
2023-02-17T06:32:02.000Z,1020
2023-02-17T06:33:01.926Z,1019.9
2023-02-17T06:34:06.424Z,1019.9
2023-02-17T06:35:02.347Z,1019.9
2023-02-17T06:36:02.278Z,1019.9
2023-02-17T06:37:02.197Z,1019.9
2023-02-17T06:38:02.314Z,1019.9
2023-02-17T06:39:02.144Z,1019.9
2023-02-17T06:40:02.101Z,1020
2023-02-17T06:41:01.994Z,1019.9
2023-02-17T06:42:01.917Z,1019.9
2023-02-17T06:43:01.838Z,1019.9
2023-02-17T06:44:01.782Z,1019.9
2023-02-17T06:45:01.752Z,1019.8
2023-02-17T06:46:03.010Z,1019.8
2023-02-17T06:47:02.653Z,1019.7
2023-02-17T06:48:02.624Z,1019.8
2023-02-17T06:49:02.536Z,1019.7
2023-02-17T06:50:02.566Z,1019.8
2023-02-17T06:51:02.480Z,1019.8
2023-02-17T06:52:02.399Z,1019.8
2023-02-17T06:53:02.268Z,1019.8
2023-02-17T06:54:02.310Z,1019.8
2023-02-17T06:55:02.192Z,1019.8
2023-02-17T06:56:02.232Z,1019.7
2023-02-17T06:57:02.271Z,1019.8
2023-02-17T06:58:02.148Z,1019.7
2023-02-17T06:59:02.145Z,1019.7
2023-02-17T07:00:02.001Z,1019.7
2023-02-17T07:01:02.011Z,1019.7
2023-02-17T07:02:03.554Z,1019.7
2023-02-17T07:03:02.867Z,1019.7
2023-02-17T07:04:02.777Z,1019.7
2023-02-17T07:05:02.670Z,1019.7
2023-02-17T07:06:02.708Z,1019.7
2023-02-17T07:07:02.571Z,1019.7
2023-02-17T07:08:02.602Z,1019.7
2023-02-17T07:09:02.459Z,1019.7
2023-02-17T07:10:02.526Z,1019.7
2023-02-17T07:11:02.494Z,1019.7
2023-02-17T07:12:02.240Z,1019.8
2023-02-17T07:13:02.284Z,1019.7
2023-02-17T07:14:02.379Z,1019.8
2023-02-17T07:15:02.152Z,1019.9
2023-02-17T07:16:02.842Z,1019.9
2023-02-17T07:17:02.453Z,1019.9
2023-02-17T07:18:02.348Z,1019.9
2023-02-17T07:19:02.429Z,1019.9
2023-02-17T07:20:02.386Z,1019.8
2023-02-17T07:21:02.250Z,1019.8
2023-02-17T07:22:02.316Z,1019.9
2023-02-17T07:23:02.476Z,1019.9
2023-02-17T07:24:02.490Z,1019.9
2023-02-17T07:25:02.513Z,1019.9
2023-02-17T07:26:02.469Z,1019.8
2023-02-17T07:27:02.345Z,1019.8
2023-02-17T07:28:02.424Z,1019.8
2023-02-17T07:29:02.437Z,1019.8
2023-02-17T07:30:02.487Z,1019.8
2023-02-17T07:31:02.388Z,1019.7
2023-02-17T07:32:02.713Z,1019.8
2023-02-17T07:33:02.508Z,1019.8
2023-02-17T07:34:02.569Z,1019.8
2023-02-17T07:35:02.506Z,1019.8
2023-02-17T07:36:02.335Z,1019.8
2023-02-17T07:37:02.377Z,1019.8
2023-02-17T07:38:02.361Z,1019.8
2023-02-17T07:39:02.202Z,1019.8
2023-02-17T07:40:02.216Z,1019.8
2023-02-17T07:41:02.074Z,1019.8
2023-02-17T07:42:02.045Z,1019.8
2023-02-17T07:43:01.875Z,1019.8
2023-02-17T07:44:01.886Z,1019.8
2023-02-17T07:45:01.768Z,1019.9
2023-02-17T07:46:03.369Z,1019.8
2023-02-17T07:47:01.850Z,1019.8
2023-02-17T07:48:01.885Z,1019.8
2023-02-17T07:49:01.720Z,1019.7
2023-02-17T07:50:02.743Z,1019.8
2023-02-17T07:51:02.601Z,1019.7
2023-02-17T07:52:05.823Z,1019.7
2023-02-17T07:53:02.634Z,1019.6
2023-02-17T07:54:02.673Z,1019.7
2023-02-17T07:55:02.478Z,1019.5
2023-02-17T07:56:02.481Z,1019.5
2023-02-17T07:57:02.362Z,1019.6
2023-02-17T07:58:02.233Z,1019.7
2023-02-17T07:59:02.287Z,1019.6
2023-02-17T08:00:02.471Z,1019.6
2023-02-17T08:01:02.453Z,1019.6
2023-02-17T08:02:02.632Z,1019.6
2023-02-17T08:03:02.476Z,1019.6
2023-02-17T08:04:02.571Z,1019.6
2023-02-17T08:05:02.338Z,1019.6
2023-02-17T08:06:02.396Z,1019.5
2023-02-17T08:07:02.421Z,1019.5
2023-02-17T08:08:02.206Z,1019.5
2023-02-17T08:09:02.196Z,1019.4
2023-02-17T08:10:02.334Z,1019.5
2023-02-17T08:11:02.166Z,1019.5
2023-02-17T08:12:02.136Z,1019.5
2023-02-17T08:13:02.009Z,1019.5
2023-02-17T08:14:02.063Z,1019.5
2023-02-17T08:15:02.022Z,1019.6
2023-02-17T08:16:02.014Z,1019.5
2023-02-17T08:17:02.167Z,1019.5
2023-02-17T08:18:02.061Z,1019.5
2023-02-17T08:19:01.898Z,1019.5
2023-02-17T08:20:09.576Z,1019.4
2023-02-17T08:21:02.445Z,1019.4
2023-02-17T08:22:02.354Z,1019.4
2023-02-17T08:23:02.390Z,1019.4
2023-02-17T08:24:02.249Z,1019.4
2023-02-17T08:25:02.171Z,1019.4
2023-02-17T08:26:02.133Z,1019.5
2023-02-17T08:27:02.023Z,1019.5
2023-02-17T08:28:02.054Z,1019.5
2023-02-17T08:29:01.821Z,1019.5
2023-02-17T08:30:02.057Z,1019.4
2023-02-17T08:31:02.174Z,1019.5
2023-02-17T08:32:02.338Z,1019.5
2023-02-17T08:33:02.242Z,1019.4
2023-02-17T08:34:02.094Z,1019.5
2023-02-17T08:35:02.105Z,1019.5
2023-02-17T08:36:02.021Z,1019.5
2023-02-17T08:37:02.041Z,1019.5
2023-02-17T08:38:01.897Z,1019.5
2023-02-17T08:39:01.864Z,1019.5
2023-02-17T08:40:02.804Z,1019.6
2023-02-17T08:41:02.678Z,1019.5
2023-02-17T08:42:02.719Z,1019.6
2023-02-17T08:43:04.254Z,1019.5
2023-02-17T08:44:02.097Z,1019.6
2023-02-17T08:45:02.179Z,1019.6
2023-02-17T08:46:02.007Z,1019.6
2023-02-17T08:47:02.733Z,1019.6
2023-02-17T08:48:02.793Z,1019.5
2023-02-17T08:49:02.654Z,1019.5
2023-02-17T08:50:02.679Z,1019.5
2023-02-17T08:51:02.535Z,1019.5
2023-02-17T08:52:02.550Z,1019.5
2023-02-17T08:53:02.633Z,1019.4
2023-02-17T08:54:02.474Z,1019.3
2023-02-17T08:55:02.519Z,1019.3
2023-02-17T08:56:02.509Z,1019.3
2023-02-17T08:57:02.481Z,1019.3
2023-02-17T08:58:02.655Z,1019.4
2023-02-17T08:59:02.556Z,1019.4
2023-02-17T09:00:06.302Z,1019.4
2023-02-17T09:01:02.487Z,1019.5
2023-02-17T09:02:02.491Z,1019.5
2023-02-17T09:03:02.603Z,1019.4
2023-02-17T09:04:02.458Z,1019.5
2023-02-17T09:05:02.504Z,1019.5
2023-02-17T09:06:02.482Z,1019.4
2023-02-17T09:07:02.380Z,1019.5
2023-02-17T09:08:02.242Z,1019.5
2023-02-17T09:09:02.255Z,1019.5
2023-02-17T09:10:02.083Z,1019.6
2023-02-17T09:11:02.186Z,1019.5
2023-02-17T09:12:02.026Z,1019.5
2023-02-17T09:13:02.069Z,1019.4
2023-02-17T09:14:01.937Z,1019.5
2023-02-17T09:15:02.065Z,1019.5
2023-02-17T09:16:01.932Z,1019.5
2023-02-17T09:17:01.767Z,1019.4
2023-02-17T09:18:01.818Z,1019.5
2023-02-17T09:19:02.754Z,1019.5
2023-02-17T09:20:02.649Z,1019.4
2023-02-17T09:21:02.631Z,1019.3
2023-02-17T09:22:02.504Z,1019.4
2023-02-17T09:23:02.585Z,1019.3
2023-02-17T09:24:02.928Z,1019.3
2023-02-17T09:25:02.699Z,1019.3
2023-02-17T09:26:02.719Z,1019.2
2023-02-17T09:27:02.638Z,1019.3
2023-02-17T09:28:02.644Z,1019.3
2023-02-17T09:29:02.569Z,1019.3
2023-02-17T09:30:02.705Z,1019.3
2023-02-17T09:31:02.719Z,1019.2
2023-02-17T09:32:02.789Z,1019.3
2023-02-17T09:33:02.643Z,1019.2
2023-02-17T09:34:02.504Z,1019.2
2023-02-17T09:35:02.527Z,1019.3
2023-02-17T09:36:02.503Z,1019.3
2023-02-17T09:37:02.450Z,1019.2
2023-02-17T09:38:02.392Z,1019.1
2023-02-17T09:39:02.488Z,1019.2
2023-02-17T09:40:02.269Z,1019.2
2023-02-17T09:41:02.311Z,1019.1
2023-02-17T09:42:02.333Z,1019.1
2023-02-17T09:43:02.107Z,1019.2
2023-02-17T09:44:02.217Z,1019.1
2023-02-17T09:45:02.005Z,1019.1
2023-02-17T09:46:02.168Z,1019.1
2023-02-17T09:47:03.790Z,1019.1
2023-02-17T09:48:02.626Z,1019.1
2023-02-17T09:49:02.843Z,1019.1
2023-02-17T09:50:02.657Z,1019.1
2023-02-17T09:51:02.718Z,1019.1
2023-02-17T09:52:02.610Z,1019.2
2023-02-17T09:53:02.606Z,1019.2
2023-02-17T09:54:02.629Z,1019.2
2023-02-17T09:55:02.386Z,1019.2
2023-02-17T09:56:02.445Z,1019.2
2023-02-17T09:57:02.582Z,1019.2
2023-02-17T09:58:02.402Z,1019.2
2023-02-17T09:59:02.466Z,1019.2
2023-02-17T10:00:02.560Z,1019.2
2023-02-17T10:01:02.619Z,1019.2
2023-02-17T10:02:02.490Z,1019.2
2023-02-17T10:03:02.516Z,1019.2
2023-02-17T10:04:02.653Z,1019.3
2023-02-17T10:05:02.792Z,1019.3
2023-02-17T10:06:02.764Z,1019.3
2023-02-17T10:07:02.697Z,1019.3
2023-02-17T10:08:02.605Z,1019.3
2023-02-17T10:09:02.630Z,1019.3
2023-02-17T10:10:02.630Z,1019.3
2023-02-17T10:11:02.594Z,1019.2
2023-02-17T10:12:02.505Z,1019.3
2023-02-17T10:13:02.467Z,1019.2
2023-02-17T10:14:02.343Z,1019.2
2023-02-17T10:15:02.121Z,1019.2
2023-02-17T10:16:02.332Z,1019.2
2023-02-17T10:17:02.383Z,1019.1
2023-02-17T10:18:02.763Z,1019.2
2023-02-17T10:19:02.875Z,1019.2
2023-02-17T10:20:02.707Z,1019.1
2023-02-17T10:21:02.773Z,1019.1
2023-02-17T10:22:02.579Z,1019.2
2023-02-17T10:23:02.676Z,1019.4
2023-02-17T10:24:02.522Z,1019.2
2023-02-17T10:25:02.570Z,1019.1
2023-02-17T10:26:02.527Z,1019
2023-02-17T10:27:02.413Z,1019.1
2023-02-17T10:28:02.280Z,1019.1
2023-02-17T10:29:02.377Z,1019
2023-02-17T10:30:02.354Z,1019
2023-02-17T10:31:03.060Z,1019
2023-02-17T10:32:03.208Z,1019
2023-02-17T10:33:02.241Z,1019
2023-02-17T10:34:02.216Z,1018.9
2023-02-17T10:35:02.163Z,1019
2023-02-17T10:36:02.029Z,1018.9
2023-02-17T10:37:01.966Z,1019
2023-02-17T10:38:01.861Z,1018.9
2023-02-17T10:39:02.794Z,1018.9
2023-02-17T10:40:02.694Z,1018.9
2023-02-17T10:41:02.699Z,1018.9
2023-02-17T10:42:02.559Z,1018.8
2023-02-17T10:43:03.053Z,1018.7
2023-02-17T10:44:02.636Z,1018.7
2023-02-17T10:45:02.874Z,1018.7
2023-02-17T10:46:02.698Z,1018.8
2023-02-17T10:47:01.811Z,1018.7
2023-02-17T10:48:01.865Z,1018.7
2023-02-17T10:49:02.757Z,1018.6
2023-02-17T10:50:02.614Z,1018.6
2023-02-17T10:51:02.716Z,1018.5
2023-02-17T10:52:02.479Z,1018.7
2023-02-17T10:53:02.459Z,1018.6
2023-02-17T10:54:02.482Z,1018.6
2023-02-17T10:55:23.649Z,1018.5
2023-02-17T10:56:02.511Z,1018.6
2023-02-17T10:57:02.678Z,1018.5
2023-02-17T10:58:02.518Z,1018.5
2023-02-17T10:59:02.556Z,1018.5
2023-02-17T11:00:02.516Z,1018.4
2023-02-17T11:01:02.716Z,1018.4
2023-02-17T11:02:01.829Z,1018.3
2023-02-17T11:03:01.900Z,1018.2
2023-02-17T11:04:01.998Z,1018.2
2023-02-17T11:05:01.888Z,1018.3
2023-02-17T11:06:02.817Z,1018.2
2023-02-17T11:07:02.653Z,1018.2
2023-02-17T11:08:02.695Z,1018.1
2023-02-17T11:09:02.572Z,1018.2
2023-02-17T11:10:02.645Z,1018.2
2023-02-17T11:11:02.582Z,1018.1
2023-02-17T11:12:02.505Z,1018.3
2023-02-17T11:13:02.503Z,1018.1
2023-02-17T11:14:02.356Z,1018
2023-02-17T11:15:02.365Z,1018.1
2023-02-17T11:16:02.562Z,1018
2023-02-17T11:17:02.537Z,1018.1
2023-02-17T11:18:02.852Z,1018.1
2023-02-17T11:19:03.162Z,1018
2023-02-17T11:20:02.310Z,1018
2023-02-17T11:21:02.424Z,1018
2023-02-17T11:22:02.434Z,1017.9
2023-02-17T11:23:02.238Z,1017.9
2023-02-17T11:24:02.305Z,1017.9
2023-02-17T11:25:02.102Z,1017.8
2023-02-17T11:26:02.107Z,1017.8
2023-02-17T11:27:01.949Z,1017.9
2023-02-17T11:28:01.918Z,1017.7
2023-02-17T11:29:01.734Z,1017.8
2023-02-17T11:30:02.925Z,1017.7
2023-02-17T11:31:01.950Z,1017.8
2023-02-17T11:32:02.687Z,1017.8
2023-02-17T11:33:02.582Z,1017.8
2023-02-17T11:34:02.475Z,1017.9
2023-02-17T11:35:02.590Z,1017.7
2023-02-17T11:36:02.554Z,1017.8
2023-02-17T11:37:02.403Z,1017.8
2023-02-17T11:38:02.395Z,1017.7
2023-02-17T11:39:02.571Z,1017.7
2023-02-17T11:40:02.447Z,1017.8
2023-02-17T11:41:02.489Z,1017.8
2023-02-17T11:42:02.529Z,1017.8
2023-02-17T11:43:02.407Z,1017.8
2023-02-17T11:44:02.513Z,1017.8
2023-02-17T11:45:02.507Z,1017.7
2023-02-17T11:46:02.461Z,1017.7
2023-02-17T11:47:02.408Z,1017.7
2023-02-17T11:48:02.435Z,1017.7
2023-02-17T11:49:02.412Z,1017.7
2023-02-17T11:50:02.291Z,1017.7
2023-02-17T11:51:02.274Z,1017.7
2023-02-17T11:52:02.302Z,1017.7
2023-02-17T11:53:02.084Z,1017.7
2023-02-17T11:54:02.161Z,1017.6
2023-02-17T11:55:01.906Z,1017.6
2023-02-17T11:56:01.918Z,1017.6
2023-02-17T11:57:01.741Z,1017.6
2023-02-17T11:58:02.914Z,1017.6
2023-02-17T11:59:02.697Z,1017.6
2023-02-17T12:00:02.696Z,1017.6
2023-02-17T12:01:02.522Z,1017.5
2023-02-17T12:02:01.767Z,1017.6
2023-02-17T12:03:02.945Z,1017.7
2023-02-17T12:04:02.758Z,1017.6
2023-02-17T12:05:02.878Z,1017.5
2023-02-17T12:06:02.673Z,1017.6
2023-02-17T12:07:02.649Z,1017.5
2023-02-17T12:08:02.572Z,1017.5
2023-02-17T12:09:02.579Z,1017.5
2023-02-17T12:10:02.570Z,1017.6
2023-02-17T12:11:02.498Z,1017.5
2023-02-17T12:12:02.386Z,1017.5
2023-02-17T12:13:02.217Z,1017.5
2023-02-17T12:14:02.235Z,1017.4
2023-02-17T12:15:02.070Z,1017.4
2023-02-17T12:16:02.061Z,1017.4
2023-02-17T12:17:01.889Z,1017.5
2023-02-17T12:18:01.915Z,1017.4
2023-02-17T12:19:01.797Z,1017.4
2023-02-17T12:20:01.881Z,1017.5
2023-02-17T12:21:02.764Z,1017.4
2023-02-17T12:22:01.784Z,1017.5
2023-02-17T12:23:02.779Z,1017.4
2023-02-17T12:24:02.654Z,1017.4
2023-02-17T12:25:02.684Z,1017.4
2023-02-17T12:26:02.466Z,1017.4
2023-02-17T12:27:02.530Z,1017.4
2023-02-17T12:28:02.427Z,1017.4
2023-02-17T12:29:02.361Z,1017.4
2023-02-17T12:30:02.275Z,1017.4
2023-02-17T12:31:02.715Z,1017.3
2023-02-17T12:32:02.274Z,1017.3